sensor_id;sensor_type;location;lat;lon;timestamp;temperature;humidity
7234;DHT22;3658;47.992;10.158;2023-02-28T00:01:22;19.20;32.00
7234;DHT22;3658;47.992;10.158;2023-02-28T00:03:49;19.20;32.00
7234;DHT22;3658;47.992;10.158;2023-02-28T00:06:16;19.20;32.00
7234;DHT22;3658;47.992;10.158;2023-02-28T00:08:43;19.20;32.00
7234;DHT22;3658;47.992;10.158;2023-02-28T00:11:12;19.20;32.00
7234;DHT22;3658;47.992;10.158;2023-02-28T00:13:41;19.30;32.00
7234;DHT22;3658;47.992;10.158;2023-02-28T00:16:11;19.20;31.90
7234;DHT22;3658;47.992;10.158;2023-02-28T00:18:40;19.30;32.00
7234;DHT22;3658;47.992;10.158;2023-02-28T00:21:08;19.30;32.10
7234;DHT22;3658;47.992;10.158;2023-02-28T00:23:35;19.30;32.00
7234;DHT22;3658;47.992;10.158;2023-02-28T00:26:03;19.30;31.90
7234;DHT22;3658;47.992;10.158;2023-02-28T00:28:30;19.30;31.90
7234;DHT22;3658;47.992;10.158;2023-02-28T00:30:57;19.30;31.90
7234;DHT22;3658;47.992;10.158;2023-02-28T00:33:25;19.30;31.90
7234;DHT22;3658;47.992;10.158;2023-02-28T00:36:01;19.40;31.90
7234;DHT22;3658;47.992;10.158;2023-02-28T00:38:28;19.40;31.90
7234;DHT22;3658;47.992;10.158;2023-02-28T00:40:55;19.30;31.90
7234;DHT22;3658;47.992;10.158;2023-02-28T00:43:24;19.40;31.90
7234;DHT22;3658;47.992;10.158;2023-02-28T00:45:51;19.30;31.90
7234;DHT22;3658;47.992;10.158;2023-02-28T00:48:18;19.30;32.00
7234;DHT22;3658;47.992;10.158;2023-02-28T00:50:44;19.30;32.00
7234;DHT22;3658;47.992;10.158;2023-02-28T00:53:16;19.30;32.00
7234;DHT22;3658;47.992;10.158;2023-02-28T00:55:43;19.30;31.90
7234;DHT22;3658;47.992;10.158;2023-02-28T00:58:10;19.40;31.90
7234;DHT22;3658;47.992;10.158;2023-02-28T01:00:37;19.40;31.90
7234;DHT22;3658;47.992;10.158;2023-02-28T01:03:04;19.40;32.00
7234;DHT22;3658;47.992;10.158;2023-02-28T01:05:31;19.40;31.90
7234;DHT22;3658;47.992;10.158;2023-02-28T01:07:57;19.40;31.90
7234;DHT22;3658;47.992;10.158;2023-02-28T01:10:27;19.40;31.80
7234;DHT22;3658;47.992;10.158;2023-02-28T01:12:56;19.40;31.90
7234;DHT22;3658;47.992;10.158;2023-02-28T01:15:23;19.40;31.80
7234;DHT22;3658;47.992;10.158;2023-02-28T01:17:50;19.40;31.90
7234;DHT22;3658;47.992;10.158;2023-02-28T01:20:17;19.40;31.80
7234;DHT22;3658;47.992;10.158;2023-02-28T01:22:44;19.40;31.90
7234;DHT22;3658;47.992;10.158;2023-02-28T01:25:12;19.40;31.90
7234;DHT22;3658;47.992;10.158;2023-02-28T01:27:40;19.40;31.80
7234;DHT22;3658;47.992;10.158;2023-02-28T01:30:08;19.40;31.90
7234;DHT22;3658;47.992;10.158;2023-02-28T01:32:36;19.40;31.90
7234;DHT22;3658;47.992;10.158;2023-02-28T01:35:03;19.40;31.90
7234;DHT22;3658;47.992;10.158;2023-02-28T01:37:30;19.50;31.90
7234;DHT22;3658;47.992;10.158;2023-02-28T01:39:57;19.40;31.90
7234;DHT22;3658;47.992;10.158;2023-02-28T01:42:24;19.40;31.90
7234;DHT22;3658;47.992;10.158;2023-02-28T01:45:03;19.40;31.80
7234;DHT22;3658;47.992;10.158;2023-02-28T01:47:33;19.50;31.90
7234;DHT22;3658;47.992;10.158;2023-02-28T01:50:04;19.50;31.90
7234;DHT22;3658;47.992;10.158;2023-02-28T01:52:33;19.50;31.90
7234;DHT22;3658;47.992;10.158;2023-02-28T01:55:02;19.50;31.90
7234;DHT22;3658;47.992;10.158;2023-02-28T01:57:34;19.50;31.90
7234;DHT22;3658;47.992;10.158;2023-02-28T02:00:08;19.50;31.90
7234;DHT22;3658;47.992;10.158;2023-02-28T02:02:36;19.50;31.90
7234;DHT22;3658;47.992;10.158;2023-02-28T02:05:06;19.50;31.90
7234;DHT22;3658;47.992;10.158;2023-02-28T02:07:35;19.50;31.90
7234;DHT22;3658;47.992;10.158;2023-02-28T02:10:06;19.60;31.90
7234;DHT22;3658;47.992;10.158;2023-02-28T02:12:45;19.50;31.90
7234;DHT22;3658;47.992;10.158;2023-02-28T02:15:20;19.60;31.90
7234;DHT22;3658;47.992;10.158;2023-02-28T02:17:52;19.60;31.90
7234;DHT22;3658;47.992;10.158;2023-02-28T02:20:46;19.60;31.90
7234;DHT22;3658;47.992;10.158;2023-02-28T02:23:34;19.60;31.90
7234;DHT22;3658;47.992;10.158;2023-02-28T02:32:23;19.60;31.90
7234;DHT22;3658;47.992;10.158;2023-02-28T02:35:08;19.60;31.90
7234;DHT22;3658;47.992;10.158;2023-02-28T02:37:40;19.60;31.90
7234;DHT22;3658;47.992;10.158;2023-02-28T02:40:15;19.60;31.90
7234;DHT22;3658;47.992;10.158;2023-02-28T02:42:51;19.60;31.90
7234;DHT22;3658;47.992;10.158;2023-02-28T02:45:25;19.60;31.90
7234;DHT22;3658;47.992;10.158;2023-02-28T02:47:55;19.60;31.90
7234;DHT22;3658;47.992;10.158;2023-02-28T02:50:28;19.60;31.90
7234;DHT22;3658;47.992;10.158;2023-02-28T02:52:58;19.60;31.90
7234;DHT22;3658;47.992;10.158;2023-02-28T02:55:28;19.60;31.80
7234;DHT22;3658;47.992;10.158;2023-02-28T02:57:59;19.60;31.80
7234;DHT22;3658;47.992;10.158;2023-02-28T03:00:32;19.60;31.70
7234;DHT22;3658;47.992;10.158;2023-02-28T03:03:01;19.60;31.80
7234;DHT22;3658;47.992;10.158;2023-02-28T03:05:34;19.60;31.80
7234;DHT22;3658;47.992;10.158;2023-02-28T03:08:04;19.60;31.80
7234;DHT22;3658;47.992;10.158;2023-02-28T03:10:35;19.60;31.80
7234;DHT22;3658;47.992;10.158;2023-02-28T03:16:49;19.70;31.80
7234;DHT22;3658;47.992;10.158;2023-02-28T03:19:34;19.70;31.80
7234;DHT22;3658;47.992;10.158;2023-02-28T03:22:24;19.60;31.80
7234;DHT22;3658;47.992;10.158;2023-02-28T03:25:01;19.70;31.90
7234;DHT22;3658;47.992;10.158;2023-02-28T03:27:37;19.70;31.90
7234;DHT22;3658;47.992;10.158;2023-02-28T03:30:10;19.70;31.70
7234;DHT22;3658;47.992;10.158;2023-02-28T03:32:42;19.70;31.80
7234;DHT22;3658;47.992;10.158;2023-02-28T03:35:16;19.70;31.80
7234;DHT22;3658;47.992;10.158;2023-02-28T03:37:52;19.70;31.70
7234;DHT22;3658;47.992;10.158;2023-02-28T03:40:22;19.70;31.70
7234;DHT22;3658;47.992;10.158;2023-02-28T03:42:53;19.70;31.80
7234;DHT22;3658;47.992;10.158;2023-02-28T03:45:25;19.70;31.80
7234;DHT22;3658;47.992;10.158;2023-02-28T03:47:54;19.70;31.80
7234;DHT22;3658;47.992;10.158;2023-02-28T03:50:25;19.70;31.70
7234;DHT22;3658;47.992;10.158;2023-02-28T03:53:01;19.70;31.90
7234;DHT22;3658;47.992;10.158;2023-02-28T03:55:33;19.70;31.80
7234;DHT22;3658;47.992;10.158;2023-02-28T03:58:06;19.70;31.80
7234;DHT22;3658;47.992;10.158;2023-02-28T04:00:37;19.80;31.80
7234;DHT22;3658;47.992;10.158;2023-02-28T04:03:06;19.80;31.70
7234;DHT22;3658;47.992;10.158;2023-02-28T04:05:33;19.80;31.80
7234;DHT22;3658;47.992;10.158;2023-02-28T04:08:12;19.70;31.70
7234;DHT22;3658;47.992;10.158;2023-02-28T04:10:39;19.80;31.80
7234;DHT22;3658;47.992;10.158;2023-02-28T04:13:06;19.80;31.80
7234;DHT22;3658;47.992;10.158;2023-02-28T04:15:33;19.80;31.70
7234;DHT22;3658;47.992;10.158;2023-02-28T04:17:59;19.80;31.60
7234;DHT22;3658;47.992;10.158;2023-02-28T04:20:26;19.80;31.70
7234;DHT22;3658;47.992;10.158;2023-02-28T04:22:53;19.80;31.60
7234;DHT22;3658;47.992;10.158;2023-02-28T04:25:22;19.80;31.70
7234;DHT22;3658;47.992;10.158;2023-02-28T04:27:48;19.80;31.80
7234;DHT22;3658;47.992;10.158;2023-02-28T04:30:16;19.80;31.70
7234;DHT22;3658;47.992;10.158;2023-02-28T04:32:43;19.80;31.60
7234;DHT22;3658;47.992;10.158;2023-02-28T04:35:10;19.80;31.60
7234;DHT22;3658;47.992;10.158;2023-02-28T04:37:37;19.80;31.60
7234;DHT22;3658;47.992;10.158;2023-02-28T04:40:04;19.80;31.70
7234;DHT22;3658;47.992;10.158;2023-02-28T04:42:33;19.80;31.60
7234;DHT22;3658;47.992;10.158;2023-02-28T04:45:01;19.90;31.60
7234;DHT22;3658;47.992;10.158;2023-02-28T04:47:28;19.90;31.60
7234;DHT22;3658;47.992;10.158;2023-02-28T04:49:55;19.90;31.60
7234;DHT22;3658;47.992;10.158;2023-02-28T04:52:22;19.90;31.60
7234;DHT22;3658;47.992;10.158;2023-02-28T04:54:49;19.90;31.60
7234;DHT22;3658;47.992;10.158;2023-02-28T04:57:16;19.90;31.60
7234;DHT22;3658;47.992;10.158;2023-02-28T04:59:45;19.90;31.60
7234;DHT22;3658;47.992;10.158;2023-02-28T05:02:11;19.90;31.60
7234;DHT22;3658;47.992;10.158;2023-02-28T05:04:38;19.90;31.60
7234;DHT22;3658;47.992;10.158;2023-02-28T05:07:05;19.90;31.60
7234;DHT22;3658;47.992;10.158;2023-02-28T05:09:32;19.90;31.70
7234;DHT22;3658;47.992;10.158;2023-02-28T05:12:00;19.90;31.60
7234;DHT22;3658;47.992;10.158;2023-02-28T05:14:27;19.90;31.60
7234;DHT22;3658;47.992;10.158;2023-02-28T05:16:55;20.00;31.60
7234;DHT22;3658;47.992;10.158;2023-02-28T05:19:22;19.90;31.60
7234;DHT22;3658;47.992;10.158;2023-02-28T05:21:51;19.90;31.60
7234;DHT22;3658;47.992;10.158;2023-02-28T05:24:18;19.90;31.60
7234;DHT22;3658;47.992;10.158;2023-02-28T05:26:49;19.90;31.60
7234;DHT22;3658;47.992;10.158;2023-02-28T05:29:16;20.00;31.60
7234;DHT22;3658;47.992;10.158;2023-02-28T05:31:43;20.00;31.60
7234;DHT22;3658;47.992;10.158;2023-02-28T05:34:11;20.00;31.60
7234;DHT22;3658;47.992;10.158;2023-02-28T05:36:41;19.90;31.60
7234;DHT22;3658;47.992;10.158;2023-02-28T05:39:08;19.90;31.60
7234;DHT22;3658;47.992;10.158;2023-02-28T05:41:39;20.00;31.60
7234;DHT22;3658;47.992;10.158;2023-02-28T05:44:06;19.90;31.60
7234;DHT22;3658;47.992;10.158;2023-02-28T05:46:33;19.90;31.60
7234;DHT22;3658;47.992;10.158;2023-02-28T05:49:00;19.70;31.50
7234;DHT22;3658;47.992;10.158;2023-02-28T05:51:28;19.50;32.00
7234;DHT22;3658;47.992;10.158;2023-02-28T05:53:59;19.40;32.40
7234;DHT22;3658;47.992;10.158;2023-02-28T05:56:25;19.40;32.70
7234;DHT22;3658;47.992;10.158;2023-02-28T05:58:52;19.30;32.90
7234;DHT22;3658;47.992;10.158;2023-02-28T06:01:22;19.20;32.90
7234;DHT22;3658;47.992;10.158;2023-02-28T06:03:50;19.20;33.10
7234;DHT22;3658;47.992;10.158;2023-02-28T06:06:17;19.30;33.30
7234;DHT22;3658;47.992;10.158;2023-02-28T06:08:45;19.20;33.10
7234;DHT22;3658;47.992;10.158;2023-02-28T06:11:12;19.20;33.20
7234;DHT22;3658;47.992;10.158;2023-02-28T06:13:39;19.20;33.20
7234;DHT22;3658;47.992;10.158;2023-02-28T06:16:07;19.20;33.30
7234;DHT22;3658;47.992;10.158;2023-02-28T06:18:34;19.20;33.30
7234;DHT22;3658;47.992;10.158;2023-02-28T06:21:01;19.20;33.40
7234;DHT22;3658;47.992;10.158;2023-02-28T06:23:28;19.20;33.40
7234;DHT22;3658;47.992;10.158;2023-02-28T06:25:57;19.20;33.50
7234;DHT22;3658;47.992;10.158;2023-02-28T06:28:25;19.20;33.40
7234;DHT22;3658;47.992;10.158;2023-02-28T06:30:52;19.20;33.40
7234;DHT22;3658;47.992;10.158;2023-02-28T06:33:19;19.20;33.50
7234;DHT22;3658;47.992;10.158;2023-02-28T06:35:46;19.30;34.10
7234;DHT22;3658;47.992;10.158;2023-02-28T06:38:14;19.30;34.30
7234;DHT22;3658;47.992;10.158;2023-02-28T06:40:41;19.40;34.40
7234;DHT22;3658;47.992;10.158;2023-02-28T06:43:12;19.40;34.20
7234;DHT22;3658;47.992;10.158;2023-02-28T06:45:42;19.40;34.20
7234;DHT22;3658;47.992;10.158;2023-02-28T06:48:10;19.40;34.20
7234;DHT22;3658;47.992;10.158;2023-02-28T06:50:38;19.40;34.30
7234;DHT22;3658;47.992;10.158;2023-02-28T06:53:05;19.40;34.50
7234;DHT22;3658;47.992;10.158;2023-02-28T06:55:33;19.40;34.50
7234;DHT22;3658;47.992;10.158;2023-02-28T06:58:00;19.40;34.50
7234;DHT22;3658;47.992;10.158;2023-02-28T07:00:28;19.40;35.20
7234;DHT22;3658;47.992;10.158;2023-02-28T07:02:55;19.40;34.50
7234;DHT22;3658;47.992;10.158;2023-02-28T07:05:22;19.40;34.60
7234;DHT22;3658;47.992;10.158;2023-02-28T07:07:49;19.40;34.70
7234;DHT22;3658;47.992;10.158;2023-02-28T07:10:18;19.50;35.10
7234;DHT22;3658;47.992;10.158;2023-02-28T07:12:45;19.40;34.80
7234;DHT22;3658;47.992;10.158;2023-02-28T07:15:12;19.40;35.00
7234;DHT22;3658;47.992;10.158;2023-02-28T07:17:41;19.40;35.10
7234;DHT22;3658;47.992;10.158;2023-02-28T07:20:09;19.40;35.30
7234;DHT22;3658;47.992;10.158;2023-02-28T07:22:36;19.40;35.30
7234;DHT22;3658;47.992;10.158;2023-02-28T07:25:05;19.40;35.40
7234;DHT22;3658;47.992;10.158;2023-02-28T07:27:32;19.40;35.40
7234;DHT22;3658;47.992;10.158;2023-02-28T07:29:59;19.30;35.20
7234;DHT22;3658;47.992;10.158;2023-02-28T07:32:29;19.30;35.20
7234;DHT22;3658;47.992;10.158;2023-02-28T07:34:57;19.30;35.30
7234;DHT22;3658;47.992;10.158;2023-02-28T07:37:24;19.30;35.30
7234;DHT22;3658;47.992;10.158;2023-02-28T07:39:51;19.30;35.30
7234;DHT22;3658;47.992;10.158;2023-02-28T07:42:18;19.30;35.20
7234;DHT22;3658;47.992;10.158;2023-02-28T07:44:45;19.40;35.10
7234;DHT22;3658;47.992;10.158;2023-02-28T07:47:12;19.40;35.10
7234;DHT22;3658;47.992;10.158;2023-02-28T07:49:39;19.40;35.00
7234;DHT22;3658;47.992;10.158;2023-02-28T07:52:08;19.40;35.10
7234;DHT22;3658;47.992;10.158;2023-02-28T07:54:35;19.50;35.00
7234;DHT22;3658;47.992;10.158;2023-02-28T07:57:02;19.40;34.80
7234;DHT22;3658;47.992;10.158;2023-02-28T07:59:29;19.40;35.50
7234;DHT22;3658;47.992;10.158;2023-02-28T08:01:57;19.40;35.00
7234;DHT22;3658;47.992;10.158;2023-02-28T08:04:24;19.40;35.70
7234;DHT22;3658;47.992;10.158;2023-02-28T08:06:51;19.40;35.90
7234;DHT22;3658;47.992;10.158;2023-02-28T08:09:20;19.50;35.80
7234;DHT22;3658;47.992;10.158;2023-02-28T08:11:47;19.40;35.70
7234;DHT22;3658;47.992;10.158;2023-02-28T08:14:14;19.40;35.80
7234;DHT22;3658;47.992;10.158;2023-02-28T08:16:41;19.40;35.70
7234;DHT22;3658;47.992;10.158;2023-02-28T08:19:08;19.40;35.80
7234;DHT22;3658;47.992;10.158;2023-02-28T08:21:35;19.40;35.90
7234;DHT22;3658;47.992;10.158;2023-02-28T08:24:02;19.30;36.00
7234;DHT22;3658;47.992;10.158;2023-02-28T08:26:31;19.30;36.10
7234;DHT22;3658;47.992;10.158;2023-02-28T08:28:58;19.30;36.10
7234;DHT22;3658;47.992;10.158;2023-02-28T08:31:25;19.30;36.00
7234;DHT22;3658;47.992;10.158;2023-02-28T08:33:52;19.30;36.30
7234;DHT22;3658;47.992;10.158;2023-02-28T08:36:21;19.30;36.20
7234;DHT22;3658;47.992;10.158;2023-02-28T08:38:48;19.30;36.00
7234;DHT22;3658;47.992;10.158;2023-02-28T08:41:15;19.20;36.00
7234;DHT22;3658;47.992;10.158;2023-02-28T08:43:43;19.30;35.90
7234;DHT22;3658;47.992;10.158;2023-02-28T08:46:12;19.30;35.80
7234;DHT22;3658;47.992;10.158;2023-02-28T08:48:39;19.30;35.80
7234;DHT22;3658;47.992;10.158;2023-02-28T08:51:08;19.30;35.70
7234;DHT22;3658;47.992;10.158;2023-02-28T08:53:36;19.40;35.40
7234;DHT22;3658;47.992;10.158;2023-02-28T08:56:06;19.40;35.30
7234;DHT22;3658;47.992;10.158;2023-02-28T08:58:34;19.40;35.40
7234;DHT22;3658;47.992;10.158;2023-02-28T09:01:12;19.40;35.50
7234;DHT22;3658;47.992;10.158;2023-02-28T09:03:39;19.40;35.60
7234;DHT22;3658;47.992;10.158;2023-02-28T09:06:08;19.40;35.70
7234;DHT22;3658;47.992;10.158;2023-02-28T09:08:36;19.30;35.70
7234;DHT22;3658;47.992;10.158;2023-02-28T09:11:03;19.40;35.70
7234;DHT22;3658;47.992;10.158;2023-02-28T09:13:30;19.40;35.80
7234;DHT22;3658;47.992;10.158;2023-02-28T09:15:59;19.40;35.80
7234;DHT22;3658;47.992;10.158;2023-02-28T09:18:27;19.40;35.80
7234;DHT22;3658;47.992;10.158;2023-02-28T09:20:55;19.40;35.70
7234;DHT22;3658;47.992;10.158;2023-02-28T09:23:23;19.40;35.70
7234;DHT22;3658;47.992;10.158;2023-02-28T09:25:52;19.40;35.60
7234;DHT22;3658;47.992;10.158;2023-02-28T09:28:20;19.50;35.70
7234;DHT22;3658;47.992;10.158;2023-02-28T09:30:49;19.50;35.50
7234;DHT22;3658;47.992;10.158;2023-02-28T09:33:18;19.50;35.50
7234;DHT22;3658;47.992;10.158;2023-02-28T09:35:48;19.50;35.60
7234;DHT22;3658;47.992;10.158;2023-02-28T09:38:15;19.50;35.50
7234;DHT22;3658;47.992;10.158;2023-02-28T09:40:48;19.50;35.30
7234;DHT22;3658;47.992;10.158;2023-02-28T09:43:18;19.40;35.00
7234;DHT22;3658;47.992;10.158;2023-02-28T09:45:50;19.40;34.30
7234;DHT22;3658;47.992;10.158;2023-02-28T09:48:27;19.50;35.00
7234;DHT22;3658;47.992;10.158;2023-02-28T09:51:02;19.50;35.40
7234;DHT22;3658;47.992;10.158;2023-02-28T09:53:32;19.50;35.30
7234;DHT22;3658;47.992;10.158;2023-02-28T09:56:04;19.60;35.30
7234;DHT22;3658;47.992;10.158;2023-02-28T09:58:36;19.60;35.10
7234;DHT22;3658;47.992;10.158;2023-02-28T10:01:09;19.60;34.90
7234;DHT22;3658;47.992;10.158;2023-02-28T10:03:40;19.60;35.20
7234;DHT22;3658;47.992;10.158;2023-02-28T10:06:16;19.60;35.60
7234;DHT22;3658;47.992;10.158;2023-02-28T10:08:52;19.60;35.70
7234;DHT22;3658;47.992;10.158;2023-02-28T10:11:23;19.70;35.60
7234;DHT22;3658;47.992;10.158;2023-02-28T10:13:54;19.60;35.50
7234;DHT22;3658;47.992;10.158;2023-02-28T10:16:31;19.60;35.70
7234;DHT22;3658;47.992;10.158;2023-02-28T10:19:03;19.60;35.80
7234;DHT22;3658;47.992;10.158;2023-02-28T10:21:36;19.50;35.70
7234;DHT22;3658;47.992;10.158;2023-02-28T10:24:14;19.50;35.80
7234;DHT22;3658;47.992;10.158;2023-02-28T10:26:44;19.50;35.80
7234;DHT22;3658;47.992;10.158;2023-02-28T10:29:11;19.50;35.90
7234;DHT22;3658;47.992;10.158;2023-02-28T10:31:39;19.60;36.00
7234;DHT22;3658;47.992;10.158;2023-02-28T10:34:08;19.60;35.80
7234;DHT22;3658;47.992;10.158;2023-02-28T10:36:40;19.50;35.80
7234;DHT22;3658;47.992;10.158;2023-02-28T10:39:33;19.50;35.80
7234;DHT22;3658;47.992;10.158;2023-02-28T10:42:00;19.50;35.70
7234;DHT22;3658;47.992;10.158;2023-02-28T10:44:27;19.60;35.60
7234;DHT22;3658;47.992;10.158;2023-02-28T10:46:55;19.50;35.50
7234;DHT22;3658;47.992;10.158;2023-02-28T10:49:24;19.50;35.60
7234;DHT22;3658;47.992;10.158;2023-02-28T10:51:55;19.50;36.30
7234;DHT22;3658;47.992;10.158;2023-02-28T10:54:26;19.50;35.50
7234;DHT22;3658;47.992;10.158;2023-02-28T10:57:07;19.50;35.50
7234;DHT22;3658;47.992;10.158;2023-02-28T10:59:35;19.50;35.60
7234;DHT22;3658;47.992;10.158;2023-02-28T11:02:31;19.50;35.50
7234;DHT22;3658;47.992;10.158;2023-02-28T11:04:58;19.50;35.50
7234;DHT22;3658;47.992;10.158;2023-02-28T11:07:27;19.50;35.70
7234;DHT22;3658;47.992;10.158;2023-02-28T11:09:56;19.60;35.70
7234;DHT22;3658;47.992;10.158;2023-02-28T11:12:26;19.60;35.70
7234;DHT22;3658;47.992;10.158;2023-02-28T11:14:56;19.60;35.40
7234;DHT22;3658;47.992;10.158;2023-02-28T11:17:26;19.50;35.00
7234;DHT22;3658;47.992;10.158;2023-02-28T11:19:56;19.30;32.70
7234;DHT22;3658;47.992;10.158;2023-02-28T11:22:25;19.20;31.10
7234;DHT22;3658;47.992;10.158;2023-02-28T11:24:59;19.00;29.90
7234;DHT22;3658;47.992;10.158;2023-02-28T11:27:42;18.90;28.90
7234;DHT22;3658;47.992;10.158;2023-02-28T11:30:24;18.90;28.70
7234;DHT22;3658;47.992;10.158;2023-02-28T11:32:52;19.00;28.60
7234;DHT22;3658;47.992;10.158;2023-02-28T11:35:24;19.20;29.40
7234;DHT22;3658;47.992;10.158;2023-02-28T11:37:53;19.30;29.90
7234;DHT22;3658;47.992;10.158;2023-02-28T11:40:27;19.30;30.00
7234;DHT22;3658;47.992;10.158;2023-02-28T11:43:18;19.40;30.20
7234;DHT22;3658;47.992;10.158;2023-02-28T11:46:00;19.40;30.40
7234;DHT22;3658;47.992;10.158;2023-02-28T11:48:35;19.50;30.80
7234;DHT22;3658;47.992;10.158;2023-02-28T11:51:10;19.50;31.00
7234;DHT22;3658;47.992;10.158;2023-02-28T11:53:57;19.50;31.10
7234;DHT22;3658;47.992;10.158;2023-02-28T11:56:33;19.50;31.20
7234;DHT22;3658;47.992;10.158;2023-02-28T11:59:14;19.50;31.40
7234;DHT22;3658;47.992;10.158;2023-02-28T12:02:03;19.50;31.40
7234;DHT22;3658;47.992;10.158;2023-02-28T12:04:37;19.50;31.50
7234;DHT22;3658;47.992;10.158;2023-02-28T12:07:12;19.50;31.90
7234;DHT22;3658;47.992;10.158;2023-02-28T12:09:51;19.60;32.80
7234;DHT22;3658;47.992;10.158;2023-02-28T12:12:35;19.60;33.20
7234;DHT22;3658;47.992;10.158;2023-02-28T12:18:18;19.70;34.00
7234;DHT22;3658;47.992;10.158;2023-02-28T12:20:53;19.70;33.90
7234;DHT22;3658;47.992;10.158;2023-02-28T12:23:33;19.80;34.10
7234;DHT22;3658;47.992;10.158;2023-02-28T12:26:11;19.80;34.30
7234;DHT22;3658;47.992;10.158;2023-02-28T12:28:44;19.80;34.40
7234;DHT22;3658;47.992;10.158;2023-02-28T12:31:18;19.80;34.70
7234;DHT22;3658;47.992;10.158;2023-02-28T12:33:52;19.80;34.80
7234;DHT22;3658;47.992;10.158;2023-02-28T12:36:20;19.80;34.90
7234;DHT22;3658;47.992;10.158;2023-02-28T12:38:53;19.80;35.80
7234;DHT22;3658;47.992;10.158;2023-02-28T12:41:26;19.90;35.10
7234;DHT22;3658;47.992;10.158;2023-02-28T12:44:01;19.80;35.10
7234;DHT22;3658;47.992;10.158;2023-02-28T12:46:32;19.70;35.80
7234;DHT22;3658;47.992;10.158;2023-02-28T12:49:06;19.70;35.30
7234;DHT22;3658;47.992;10.158;2023-02-28T12:51:35;19.70;35.40
7234;DHT22;3658;47.992;10.158;2023-02-28T12:54:10;19.70;35.30
7234;DHT22;3658;47.992;10.158;2023-02-28T12:56:46;19.70;35.30
7234;DHT22;3658;47.992;10.158;2023-02-28T12:59:22;19.60;35.30
7234;DHT22;3658;47.992;10.158;2023-02-28T13:02:18;19.60;35.30
7234;DHT22;3658;47.992;10.158;2023-02-28T13:05:01;19.60;35.30
7234;DHT22;3658;47.992;10.158;2023-02-28T13:08:17;19.60;35.40
7234;DHT22;3658;47.992;10.158;2023-02-28T13:10:49;19.60;35.30
7234;DHT22;3658;47.992;10.158;2023-02-28T13:13:21;19.60;35.30
7234;DHT22;3658;47.992;10.158;2023-02-28T13:16:07;19.60;35.20
7234;DHT22;3658;47.992;10.158;2023-02-28T13:18:37;19.60;35.20
7234;DHT22;3658;47.992;10.158;2023-02-28T13:21:06;19.60;35.30
7234;DHT22;3658;47.992;10.158;2023-02-28T13:23:57;19.60;35.30
7234;DHT22;3658;47.992;10.158;2023-02-28T13:29:28;19.60;35.30
7234;DHT22;3658;47.992;10.158;2023-02-28T13:35:37;19.60;35.40
7234;DHT22;3658;47.992;10.158;2023-02-28T13:38:33;19.50;35.10
7234;DHT22;3658;47.992;10.158;2023-02-28T13:44:06;19.60;35.10
7234;DHT22;3658;47.992;10.158;2023-02-28T13:46:36;19.60;35.00
7234;DHT22;3658;47.992;10.158;2023-02-28T13:49:23;19.50;35.20
7234;DHT22;3658;47.992;10.158;2023-02-28T13:51:56;19.50;35.20
7234;DHT22;3658;47.992;10.158;2023-02-28T13:54:39;19.50;35.20
7234;DHT22;3658;47.992;10.158;2023-02-28T13:57:20;19.60;35.30
7234;DHT22;3658;47.992;10.158;2023-02-28T13:59:57;19.60;35.30
7234;DHT22;3658;47.992;10.158;2023-02-28T14:02:57;19.60;36.20
7234;DHT22;3658;47.992;10.158;2023-02-28T14:05:31;19.60;35.40
7234;DHT22;3658;47.992;10.158;2023-02-28T14:08:05;19.50;35.60
7234;DHT22;3658;47.992;10.158;2023-02-28T14:10:39;19.50;35.50
7234;DHT22;3658;47.992;10.158;2023-02-28T14:13:39;19.50;35.60
7234;DHT22;3658;47.992;10.158;2023-02-28T14:16:11;19.50;35.50
7234;DHT22;3658;47.992;10.158;2023-02-28T14:18:40;19.50;35.60
7234;DHT22;3658;47.992;10.158;2023-02-28T14:21:13;19.50;35.50
7234;DHT22;3658;47.992;10.158;2023-02-28T14:27:06;19.60;35.80
7234;DHT22;3658;47.992;10.158;2023-02-28T14:30:00;19.60;35.60
7234;DHT22;3658;47.992;10.158;2023-02-28T14:32:35;19.60;35.70
7234;DHT22;3658;47.992;10.158;2023-02-28T14:35:16;19.60;35.60
7234;DHT22;3658;47.992;10.158;2023-02-28T14:37:45;19.60;35.60
7234;DHT22;3658;47.992;10.158;2023-02-28T14:40:14;19.60;36.10
7234;DHT22;3658;47.992;10.158;2023-02-28T14:42:47;19.60;36.40
7234;DHT22;3658;47.992;10.158;2023-02-28T14:45:19;19.60;36.10
7234;DHT22;3658;47.992;10.158;2023-02-28T14:47:47;19.60;36.30
7234;DHT22;3658;47.992;10.158;2023-02-28T14:50:20;19.60;36.30
7234;DHT22;3658;47.992;10.158;2023-02-28T14:52:49;19.60;36.50
7234;DHT22;3658;47.992;10.158;2023-02-28T14:55:23;19.60;36.40
7234;DHT22;3658;47.992;10.158;2023-02-28T14:57:52;19.60;36.20
7234;DHT22;3658;47.992;10.158;2023-02-28T15:00:23;19.60;35.80
7234;DHT22;3658;47.992;10.158;2023-02-28T15:02:51;19.60;35.80
7234;DHT22;3658;47.992;10.158;2023-02-28T15:05:29;19.60;35.80
7234;DHT22;3658;47.992;10.158;2023-02-28T15:08:06;19.60;35.90
7234;DHT22;3658;47.992;10.158;2023-02-28T15:10:39;19.60;35.90
7234;DHT22;3658;47.992;10.158;2023-02-28T15:13:10;19.50;35.80
7234;DHT22;3658;47.992;10.158;2023-02-28T15:15:42;19.50;35.80
7234;DHT22;3658;47.992;10.158;2023-02-28T15:18:18;19.50;36.00
7234;DHT22;3658;47.992;10.158;2023-02-28T15:20:48;19.60;36.00
7234;DHT22;3658;47.992;10.158;2023-02-28T15:23:17;19.60;36.10
7234;DHT22;3658;47.992;10.158;2023-02-28T15:25:45;19.60;36.10
7234;DHT22;3658;47.992;10.158;2023-02-28T15:28:16;19.60;36.30
7234;DHT22;3658;47.992;10.158;2023-02-28T15:30:58;19.50;36.40
7234;DHT22;3658;47.992;10.158;2023-02-28T15:33:27;19.50;36.50
7234;DHT22;3658;47.992;10.158;2023-02-28T15:36:06;19.50;36.40
7234;DHT22;3658;47.992;10.158;2023-02-28T15:38:35;19.40;36.60
7234;DHT22;3658;47.992;10.158;2023-02-28T15:41:04;19.50;36.90
7234;DHT22;3658;47.992;10.158;2023-02-28T15:43:35;19.60;36.90
7234;DHT22;3658;47.992;10.158;2023-02-28T15:46:04;19.60;36.60
7234;DHT22;3658;47.992;10.158;2023-02-28T15:48:35;19.60;36.30
7234;DHT22;3658;47.992;10.158;2023-02-28T15:51:06;19.50;36.50
7234;DHT22;3658;47.992;10.158;2023-02-28T15:53:36;19.50;36.60
7234;DHT22;3658;47.992;10.158;2023-02-28T15:56:14;19.50;36.60
7234;DHT22;3658;47.992;10.158;2023-02-28T15:58:44;19.60;36.50
7234;DHT22;3658;47.992;10.158;2023-02-28T16:01:21;19.60;36.50
7234;DHT22;3658;47.992;10.158;2023-02-28T16:03:52;19.60;36.60
7234;DHT22;3658;47.992;10.158;2023-02-28T16:06:32;19.60;36.30
7234;DHT22;3658;47.992;10.158;2023-02-28T16:08:59;19.60;36.30
7234;DHT22;3658;47.992;10.158;2023-02-28T16:11:28;19.60;36.60
7234;DHT22;3658;47.992;10.158;2023-02-28T16:13:56;19.60;36.90
7234;DHT22;3658;47.992;10.158;2023-02-28T16:16:24;19.60;37.40
7234;DHT22;3658;47.992;10.158;2023-02-28T16:18:52;19.60;37.30
7234;DHT22;3658;47.992;10.158;2023-02-28T16:21:20;19.60;37.20
7234;DHT22;3658;47.992;10.158;2023-02-28T16:23:47;19.50;37.10
7234;DHT22;3658;47.992;10.158;2023-02-28T16:26:22;19.60;37.00
7234;DHT22;3658;47.992;10.158;2023-02-28T16:28:51;19.60;36.90
7234;DHT22;3658;47.992;10.158;2023-02-28T16:31:19;19.60;36.80
7234;DHT22;3658;47.992;10.158;2023-02-28T16:33:47;19.60;36.70
7234;DHT22;3658;47.992;10.158;2023-02-28T16:36:17;19.60;36.40